Weather observations for the past three days for
Carlsbad, McClellan-Palomar Airport
Metric (Imperial)
Date Time (pdt) Wind (kph) Vis. (km) Weather Sky Cond. Temperature (ºC) Relative Humidity Wind Chill (°C) Heat Index (°C) Pressure Precipitation (cm)
Air Dwpt 6 hour altimeter (cm) sea level (mb) 1 hr 3 hr 6 hr
Max. Min.
05 10:53 SW 9 16.09 Partly Cloudy SCT120 24.4 13.3 24.4 17.2 50% 26 76.07 1013.8
05 09:53 W 6 16.09 Overcast OVC120 23.9 13.3 52% 25 76.05 1013.6
05 08:53 Calm 16.09 Mostly Cloudy BKN120 22.8 12.8 53% 76.05 1013.5
05 07:53 Calm 16.09 Fair CLR 19.4 14.4 73% 76.02 1013.2
05 06:53 Calm 16.09 Fair CLR 17.2 13.9 81% 75.97 1012.5
05 05:53 Calm 16.09 Fair CLR 17.2 14.4 84% 75.95 1012.1
05 04:53 Calm 16.09 Fair CLR 17.8 15 19.4 17.2 84% 75.95 1012.1
05 03:53 Calm 16.09 Fair CLR 17.8 15.6 87% 75.97 1012.4
05 02:53 Calm 16.09 Fair CLR 18.3 15.6 84% 75.97 1012.6
05 01:53 Calm 16.09 Fair CLR 18.3 15.6 84% 75.97 1012.7
05 00:53 E 7 16.09 Fair CLR 18.3 15.6 84% 76.05 1013.4
04 23:53 Calm 16.09 Fair CLR 19.4 16.1 81% 76.05 1013.4
04 22:53 Calm 16.09 Fair CLR 19.4 16.7 22.8 19.4 84% 76.02 1013.1
04 21:53 Calm 16.09 Fair CLR 20 16.7 81% 76.02 1013.1
04 20:53 Calm 16.09 Fair CLR 20 16.1 78% 75.97 1012.6
04 19:53 Vrbl 6 16.09 Fair CLR 20.6 16.1 76% 75.92 1011.9
04 18:53 W 9 16.09 Fair CLR 21.1 16.1 73% 75.92 1011.9
04 17:53 Vrbl 7 16.09 Fair CLR 22.2 16.1 68% 75.92 1011.9
04 16:53 W 11 16.09 Fair CLR 22.2 15.6 23.9 21.7 66% 75.92 1012.0
04 15:53 W 13 16.09 Fair CLR 22.8 15.6 64% 75.95 1012.3
04 14:53 SW 15 16.09 Fair CLR 23.3 15 60% 75.97 1012.5
04 13:53 SW 15 16.09 Fair CLR 23.3 15 60% 76 1012.8
04 12:53 W 13 16.09 Fair CLR 23.3 15 60% 76 1012.9
04 11:53 SW 13 16.09 Fair CLR 22.8 14.4 59% 76.05 1013.5
04 10:53 SW 13 16.09 Fair CLR 22.2 14.4 22.2 17.8 61% 76.07 1013.8
04 09:53 Vrbl 6 16.09 Fair CLR 21.7 13.9 61% 76.07 1013.8
04 08:53 Calm 16.09 A Few Clouds FEW022 20 14.4 70% 76.02 1013.2
04 07:53 E 7 16.09 Overcast OVC022 19.4 14.4 73% 76 1013.0
04 06:53 E 6 16.09 Fair CLR 17.8 14.4 81% 75.97 1012.6
04 05:53 E 7 16.09 A Few Clouds FEW023 18.3 14.4 78% 75.95 1012.2
04 04:53 E 7 16.09 Fair CLR 18.3 15 19.4 17.8 81% 75.95 1012.1
04 03:53 SE 7 16.09 Overcast OVC018 18.9 15.6 81% 75.95 1012.2
04 02:53 E 6 16.09 Overcast OVC020 17.8 15 84% 75.92 1012.0
04 01:53 E 6 16.09 Fair CLR 17.8 15 84% 75.95 1012.1
04 00:53 E 6 16.09 Fair CLR 18.3 15 81% 75.97 1012.4
03 23:53 SE 6 16.09 Fair CLR 18.9 15.6 81% 75.97 1012.4
03 22:53 SE 6 16.09 Fair CLR 19.4 15.6 22.2 19.4 79% 75.95 1012.2
03 21:53 Calm 16.09 Fair CLR 19.4 15.6 79% 75.97 1012.4
03 20:53 S 7 16.09 Fair CLR 20 15.6 76% 75.95 1012.3
03 19:53 SW 9 16.09 Fair CLR 20 15.6 76% 75.92 1011.8
03 18:53 SW 7 16.09 A Few Clouds FEW018 20.6 15.6 73% 75.92 1011.8
03 17:53 Vrbl 6 16.09 Mostly Cloudy BKN018 21.1 15.6 71% 75.92 1012.0
03 16:53 W 19 G 30 16.09 A Few Clouds FEW018 22.2 15.6 23.9 21.7 66% 75.92 1012.0
03 15:53 W 17 G 30 16.09 Partly Cloudy SCT017 22.8 16.7 69% 75.95 1012.3
03 14:53 W 17 16.09 A Few Clouds FEW017 23.3 17.2 69% 75.97 1012.6
03 13:53 W 17 16.09 Fair CLR 23.3 16.7 67% 76 1012.8
03 12:53 SW 15 16.09 Fair CLR 22.8 16.7 69% 76.02 1013.2
03 11:53 W 17 16.09 Fair CLR 23.3 16.1 64% 76.07 1013.8
03 10:53 W 11 16.09 Fair CLR 22.8 16.1 23.9 16.7 66% 76.1 1014.2
03 09:53 Vrbl 6 16.09 Fair CLR 21.7 15 66% 76.1 1014.2
03 08:53 Calm 16.09 Fair CLR 20.6 15.6 73% 76.1 1014.4
03 07:53 E 6 16.09 Fair CLR 18.9 14.4 75% 76.12 1014.5
03 06:53 Calm 16.09 A Few Clouds FEW017 17.2 14.4 84% 76.07 1013.9
03 05:53 SE 6 16.09 Fair CLR 17.2 14.4 84% 76.05 1013.6
03 04:53 Calm 16.09 Fair CLR 17.2 14.4 19.4 17.2 84% 76.05 1013.5
03 03:53 Calm 16.09 Fair CLR 17.8 14.4 81% 76.05 1013.7
03 02:53 Calm 16.09 Fair CLR 18.3 15 81% 76.1 1014.2
03 01:53 E 6 16.09 Fair CLR 18.3 15 81% 76.12 1014.5
03 00:53 SE 6 16.09 Fair CLR 18.9 15.6 81% 76.12 1014.7
02 23:53 E 6 16.09 Fair CLR 18.9 15.6 81% 76.15 1014.8
02 22:53 Calm 16.09 Fair CLR 19.4 16.1 22.8 19.4 81% 76.15 1014.9
02 21:53 Calm 16.09 Fair CLR 20 15.6 76% 76.15 1015.0
02 20:53 Calm 16.09 Fair CLR 20.6 16.1 76% 76.12 1014.6
02 19:53 Calm 16.09 Mostly Cloudy BKN017 20.6 16.7 78% 76.07 1014.0
02 18:53 Vrbl 6 16.09 Fair CLR 21.1 16.1 73% 76.07 1014.0
02 17:53 SW 11 16.09 Fair CLR 22.2 14.4 61% 76.07 1013.8
02 16:53 W 15 16.09 Fair CLR 22.2 15.6 23.3 22.2 66% 76.07 1013.9
02 15:53 W 15 16.09 Fair CLR 22.8 15.6 64% 76.1 1014.4
02 14:53 W 15 16.09 Fair CLR 22.8 15.6 64% 76.12 1014.7
02 13:53 SW 13 16.09 Fair CLR 22.8 16.1 66% 76.15 1015.0
02 12:53 W 11 G 30 16.09 Fair CLR 22.8 16.7 69% 76.2 1015.5
02 11:53 SW 13 16.09 Fair CLR 23.3 16.7 67% 76.2 1015.6
Date Time (pdt) Wind (kph) Vis. (km) Weather Sky Cond. Air Dwpt Max. Min. Relative Humidity Wind Chill (°C) Heat Index (°C) altimeter (cm) sea level (mb) 1 hr 3 hr 6 hr
6 hour
Temperature (ºC) Pressure Precipitation (cm)